createdAt,value
2017-07-14T00:00:09.895Z,99.90
2017-07-14T00:02:38.359Z,99.90
2017-07-14T00:05:06.841Z,99.90
2017-07-14T00:07:35.320Z,99.90
2017-07-14T00:10:03.627Z,99.90
2017-07-14T00:12:32.723Z,99.90
2017-07-14T00:15:01.783Z,99.90
2017-07-14T00:17:30.106Z,99.90
2017-07-14T00:19:58.408Z,99.90
2017-07-14T00:22:26.747Z,99.90
2017-07-14T00:24:55.071Z,99.90
2017-07-14T00:27:23.384Z,99.90
2017-07-14T00:29:51.676Z,99.90
2017-07-14T00:32:20.202Z,99.90
2017-07-14T00:34:48.513Z,99.90
2017-07-14T00:37:17.575Z,99.90
2017-07-14T00:39:45.896Z,99.90
2017-07-14T00:42:14.964Z,99.90
2017-07-14T00:44:43.279Z,99.90
2017-07-14T00:47:12.323Z,99.90
2017-07-14T00:49:40.650Z,99.90
2017-07-14T00:52:08.959Z,99.90
2017-07-14T00:54:37.275Z,99.90
2017-07-14T00:57:06.345Z,99.90
2017-07-14T00:59:34.675Z,99.90
2017-07-14T01:02:02.989Z,99.90
2017-07-14T01:04:31.404Z,99.90
2017-07-14T01:06:59.711Z,99.90
2017-07-14T01:09:28.007Z,99.90
2017-07-14T01:11:56.338Z,99.90
2017-07-14T01:14:25.406Z,99.90
2017-07-14T01:16:53.700Z,99.90
2017-07-14T01:19:21.986Z,99.90
2017-07-14T01:21:51.076Z,99.90
2017-07-14T01:24:20.168Z,99.90
2017-07-14T01:26:49.258Z,99.90
2017-07-14T01:29:18.375Z,99.90
2017-07-14T01:31:46.915Z,99.90
2017-07-14T01:34:15.243Z,99.90
2017-07-14T01:36:43.572Z,99.90
2017-07-14T01:39:11.922Z,99.90
2017-07-14T01:41:40.228Z,99.90
2017-07-14T01:44:08.551Z,99.90
2017-07-14T01:46:36.880Z,99.90
2017-07-14T01:49:05.215Z,99.90
2017-07-14T01:51:33.526Z,99.90
2017-07-14T01:54:01.944Z,99.90
2017-07-14T01:56:31.017Z,99.90
2017-07-14T01:58:59.324Z,99.90
2017-07-14T02:01:28.395Z,99.90
2017-07-14T02:03:56.712Z,99.90
2017-07-14T02:06:25.045Z,99.90
2017-07-14T02:08:53.372Z,99.90
2017-07-14T02:11:21.699Z,99.90
2017-07-14T02:13:50.779Z,99.90
2017-07-14T02:16:19.206Z,99.90
2017-07-14T02:18:47.500Z,99.90
2017-07-14T02:21:15.810Z,99.90
2017-07-14T02:23:44.141Z,99.90
2017-07-14T02:26:12.426Z,99.90
2017-07-14T02:28:40.743Z,99.90
2017-07-14T02:31:09.156Z,99.90
2017-07-14T02:33:38.240Z,99.90
2017-07-14T02:36:06.703Z,99.90
2017-07-14T02:38:35.027Z,99.90
2017-07-14T02:41:03.355Z,99.90
2017-07-14T02:43:31.865Z,99.90
2017-07-14T02:46:00.921Z,99.90
2017-07-14T02:48:29.236Z,99.90
2017-07-14T02:50:58.319Z,99.90
2017-07-14T02:53:27.388Z,99.90
2017-07-14T02:55:55.720Z,99.90
2017-07-14T02:58:24.032Z,99.90
2017-07-14T03:00:52.352Z,99.90
2017-07-14T03:03:21.361Z,99.90
2017-07-14T03:05:49.819Z,99.90
2017-07-14T03:08:18.892Z,99.90
2017-07-14T03:10:47.192Z,99.90
2017-07-14T03:13:16.283Z,99.90
2017-07-14T03:15:44.606Z,99.90
2017-07-14T03:18:12.941Z,99.90
2017-07-14T03:20:41.251Z,99.90
2017-07-14T03:23:09.588Z,99.90
2017-07-14T03:25:37.904Z,99.90
2017-07-14T03:28:06.239Z,99.90
2017-07-14T03:30:35.313Z,99.90
2017-07-14T03:33:03.634Z,99.90
2017-07-14T03:35:31.927Z,99.90
2017-07-14T03:38:00.678Z,99.90
2017-07-14T03:40:29.749Z,99.90
2017-07-14T03:42:58.064Z,99.90
2017-07-14T03:45:26.406Z,99.90
2017-07-14T03:47:54.699Z,99.90
2017-07-14T03:50:23.153Z,99.90
2017-07-14T03:52:51.456Z,99.90
2017-07-14T03:55:19.791Z,99.90
2017-07-14T03:57:48.126Z,99.90
2017-07-14T04:00:16.453Z,99.90
2017-07-14T04:02:44.751Z,99.90
2017-07-14T04:05:13.070Z,99.90
2017-07-14T04:07:41.355Z,99.90
2017-07-14T04:10:09.930Z,99.90
2017-07-14T04:12:38.240Z,99.90
2017-07-14T04:15:06.546Z,99.90
2017-07-14T04:17:34.891Z,99.90
2017-07-14T04:20:03.997Z,99.90
2017-07-14T04:22:32.320Z,99.90
2017-07-14T04:25:00.690Z,99.90
2017-07-14T04:27:29.767Z,99.90
2017-07-14T04:29:58.951Z,99.90
2017-07-14T04:32:27.655Z,99.90
2017-07-14T04:34:56.759Z,99.90
2017-07-14T04:37:25.078Z,99.90
2017-07-14T04:39:53.415Z,99.90
2017-07-14T04:42:21.780Z,99.90
2017-07-14T04:44:50.875Z,99.90
2017-07-14T04:47:19.955Z,99.90
2017-07-14T04:49:48.284Z,99.90
2017-07-14T04:52:16.611Z,99.90
2017-07-14T04:54:44.937Z,99.90
2017-07-14T04:57:13.252Z,99.90
2017-07-14T04:59:41.764Z,99.90
2017-07-14T05:02:10.830Z,99.90
2017-07-14T05:04:39.115Z,99.90
2017-07-14T05:07:07.513Z,99.90
2017-07-14T05:09:35.963Z,99.90
2017-07-14T05:12:04.287Z,99.90
2017-07-14T05:14:32.576Z,99.90
2017-07-14T05:17:00.900Z,99.90
2017-07-14T05:19:29.207Z,99.90
2017-07-14T05:21:57.552Z,99.90
2017-07-14T05:24:25.849Z,99.90
2017-07-14T05:26:54.302Z,99.90
2017-07-14T05:29:22.664Z,99.90
2017-07-14T05:31:50.951Z,99.90
2017-07-14T05:34:19.274Z,99.90
2017-07-14T05:36:47.594Z,99.90
2017-07-14T05:39:16.030Z,99.90
2017-07-14T05:41:44.338Z,99.90
2017-07-14T05:44:12.676Z,99.90
2017-07-14T05:46:41.732Z,99.90
2017-07-14T05:49:10.068Z,99.90
2017-07-14T05:51:38.406Z,99.90
2017-07-14T05:54:07.143Z,99.90
2017-07-14T05:56:35.485Z,99.60
2017-07-14T05:59:03.809Z,99.90
2017-07-14T06:01:32.132Z,99.70
2017-07-14T06:04:00.458Z,99.40
2017-07-14T06:06:28.804Z,99.50
2017-07-14T06:08:57.172Z,99.60
2017-07-14T06:11:26.269Z,99.40
2017-07-14T06:13:54.582Z,99.30
2017-07-14T06:16:22.919Z,99.20
2017-07-14T06:18:51.471Z,99.90
2017-07-14T06:21:19.796Z,98.50
2017-07-14T06:23:48.096Z,98.10
2017-07-14T06:26:16.441Z,97.40
2017-07-14T06:28:44.756Z,96.70
2017-07-14T06:31:13.292Z,96.60
2017-07-14T06:33:41.567Z,96.40
2017-07-14T06:36:10.623Z,96.50
2017-07-14T06:38:38.947Z,96.50
2017-07-14T06:41:07.284Z,96.70
2017-07-14T06:43:35.607Z,96.70
2017-07-14T06:46:03.944Z,97.00
2017-07-14T06:48:33.059Z,96.00
2017-07-14T06:51:01.387Z,95.60
2017-07-14T06:53:29.718Z,94.70
2017-07-14T06:55:58.022Z,94.70
2017-07-14T06:58:26.371Z,94.40
2017-07-14T07:00:54.677Z,94.60
2017-07-14T07:03:23.217Z,94.40
2017-07-14T07:05:52.287Z,92.60
2017-07-14T07:08:20.579Z,92.60
2017-07-14T07:10:48.887Z,92.00
2017-07-14T07:13:17.195Z,91.80
2017-07-14T07:15:45.535Z,92.90
2017-07-14T07:18:13.847Z,94.20
2017-07-14T07:20:42.209Z,92.10
2017-07-14T07:23:10.722Z,94.50
2017-07-14T07:25:39.156Z,92.50
2017-07-14T07:28:07.624Z,91.70
2017-07-14T07:30:35.997Z,90.60
2017-07-14T07:33:04.339Z,94.20
2017-07-14T07:35:32.651Z,92.50
2017-07-14T07:38:00.996Z,91.90
2017-07-14T07:40:29.307Z,87.40
2017-07-14T07:42:57.791Z,88.30
2017-07-14T07:45:26.855Z,86.70
2017-07-14T07:48:01.668Z,85.80
2017-07-14T07:50:29.976Z,85.60
2017-07-14T07:52:58.574Z,90.10
2017-07-14T07:55:26.881Z,86.70
2017-07-14T07:57:55.221Z,82.60
2017-07-14T08:00:24.308Z,78.50
2017-07-14T08:02:58.346Z,78.30
2017-07-14T08:05:27.014Z,81.60
2017-07-14T08:07:55.347Z,84.60
2017-07-14T08:10:23.715Z,86.60
2017-07-14T08:12:52.015Z,88.70
2017-07-14T08:15:20.337Z,89.90
2017-07-14T08:17:49.392Z,82.30
2017-07-14T08:20:17.736Z,81.90
2017-07-14T08:22:46.034Z,78.40
2017-07-14T08:25:14.723Z,76.50
2017-07-14T08:27:43.068Z,78.30
2017-07-14T08:30:11.370Z,76.90
2017-07-14T08:32:39.708Z,78.10
2017-07-14T08:37:42.691Z,79.00
2017-07-14T08:40:11.013Z,75.20
2017-07-14T08:42:39.365Z,73.40
2017-07-14T08:45:07.668Z,73.80
2017-07-14T08:47:36.012Z,73.90
2017-07-14T08:50:04.304Z,71.10
2017-07-14T08:52:32.632Z,71.40
2017-07-14T08:55:01.716Z,68.30
2017-07-14T08:57:30.039Z,68.20
2017-07-14T08:59:58.354Z,68.60
2017-07-14T09:02:26.678Z,70.60
2017-07-14T09:04:55.003Z,71.20
2017-07-14T09:07:23.453Z,68.10
2017-07-14T09:09:51.755Z,68.80
2017-07-14T09:12:20.047Z,71.50
2017-07-14T09:14:48.350Z,67.90
2017-07-14T09:17:16.671Z,70.90
2017-07-14T09:19:45.005Z,68.90
2017-07-14T09:22:14.078Z,67.40
2017-07-14T09:24:43.351Z,68.70
2017-07-14T09:27:11.667Z,68.70
2017-07-14T09:29:40.008Z,67.00
2017-07-14T09:32:08.307Z,62.80
2017-07-14T09:34:36.812Z,62.40
2017-07-14T09:37:05.119Z,61.80
2017-07-14T09:39:33.437Z,63.10
2017-07-14T09:42:01.762Z,65.40
2017-07-14T09:44:30.095Z,65.40
2017-07-14T09:46:58.407Z,63.80
2017-07-14T09:49:26.867Z,63.80
2017-07-14T09:51:56.080Z,66.20
2017-07-14T09:54:25.164Z,65.70
2017-07-14T09:56:54.374Z,63.20
2017-07-14T09:59:23.454Z,61.60
2017-07-14T10:01:52.652Z,64.30
2017-07-14T10:04:21.142Z,64.30
2017-07-14T10:06:50.748Z,63.60
2017-07-14T10:09:19.072Z,63.80
2017-07-14T10:11:47.411Z,63.20
2017-07-14T10:14:15.731Z,65.50
2017-07-14T10:16:44.047Z,59.70
2017-07-14T10:19:12.357Z,58.60
2017-07-14T10:21:40.671Z,60.80
2017-07-14T10:24:09.079Z,60.90
2017-07-14T10:26:37.462Z,60.90
2017-07-14T10:29:05.796Z,58.40
2017-07-14T10:31:34.096Z,57.60
2017-07-14T10:34:02.528Z,56.00
2017-07-14T10:36:30.830Z,54.70
2017-07-14T10:38:59.149Z,55.90
2017-07-14T10:41:28.229Z,55.80
2017-07-14T10:43:56.556Z,55.80
2017-07-14T10:46:24.959Z,54.10
2017-07-14T10:48:53.258Z,54.30
2017-07-14T10:51:21.567Z,54.30
2017-07-14T10:53:49.865Z,56.40
2017-07-14T10:56:18.365Z,56.00
2017-07-14T10:58:46.668Z,57.40
2017-07-14T11:01:15.774Z,57.00
2017-07-14T11:03:44.088Z,57.20
2017-07-14T11:06:12.666Z,59.20
2017-07-14T11:08:41.007Z,58.60
2017-07-14T11:11:10.099Z,58.40
2017-07-14T11:13:39.187Z,59.00
2017-07-14T11:16:08.403Z,57.90
2017-07-14T11:18:36.744Z,57.90
2017-07-14T11:21:05.052Z,57.30
2017-07-14T11:23:33.399Z,57.70
2017-07-14T11:26:01.720Z,58.70
2017-07-14T11:28:30.031Z,57.60
2017-07-14T11:30:58.342Z,58.30
2017-07-14T11:33:27.545Z,55.60
2017-07-14T11:35:56.739Z,54.60
2017-07-14T11:38:25.995Z,54.00
2017-07-14T11:40:54.488Z,53.30
2017-07-14T11:43:22.803Z,51.90
2017-07-14T11:45:51.886Z,49.30
2017-07-14T11:48:20.968Z,50.60
2017-07-14T11:50:49.303Z,50.60
2017-07-14T11:53:17.615Z,49.80
2017-07-14T11:55:45.947Z,48.70
2017-07-14T11:58:14.263Z,50.00
2017-07-14T12:00:42.565Z,46.90
2017-07-14T12:03:10.852Z,44.90
2017-07-14T12:05:39.537Z,46.20
2017-07-14T12:08:07.850Z,46.90
2017-07-14T12:10:36.167Z,47.40
2017-07-14T12:13:04.497Z,47.70
2017-07-14T12:15:32.855Z,45.40
2017-07-14T12:18:01.931Z,47.50
2017-07-14T12:20:31.001Z,48.20
2017-07-14T12:22:59.348Z,48.20
2017-07-14T12:25:27.646Z,46.60
2017-07-14T12:27:56.172Z,46.60
2017-07-14T12:30:24.527Z,48.70
2017-07-14T12:32:52.920Z,45.10
2017-07-14T12:35:21.347Z,46.50
2017-07-14T12:37:49.687Z,45.50
2017-07-14T12:40:18.010Z,46.00
2017-07-14T12:42:47.124Z,45.60
2017-07-14T12:45:15.463Z,45.60
2017-07-14T12:47:43.799Z,46.10
2017-07-14T12:50:12.144Z,47.10
2017-07-14T12:52:40.537Z,48.00
2017-07-14T12:55:09.977Z,47.50
2017-07-14T12:57:38.348Z,47.10
2017-07-14T13:00:06.652Z,47.80
2017-07-14T13:02:34.963Z,48.60
2017-07-14T13:05:03.270Z,48.90
2017-07-14T13:07:31.652Z,47.90
2017-07-14T13:10:00.011Z,49.20
2017-07-14T13:12:29.150Z,50.70
2017-07-14T13:14:57.550Z,50.10
2017-07-14T13:17:25.988Z,50.30
2017-07-14T13:19:54.319Z,49.60
2017-07-14T13:22:22.630Z,48.30
2017-07-14T13:24:50.923Z,47.20
2017-07-14T13:27:19.396Z,47.70
2017-07-14T13:29:47.712Z,48.30
2017-07-14T13:32:16.148Z,49.20
2017-07-14T13:34:44.546Z,48.70
2017-07-14T13:37:12.883Z,51.00
2017-07-14T13:39:41.295Z,48.00
2017-07-14T13:42:09.604Z,46.70
2017-07-14T13:44:38.079Z,46.40
2017-07-14T13:47:06.444Z,46.50
2017-07-14T13:49:34.784Z,47.20
2017-07-14T13:52:03.898Z,46.50
2017-07-14T13:54:32.984Z,46.20
2017-07-14T13:57:02.067Z,46.10
2017-07-14T13:59:31.164Z,46.10
2017-07-14T14:02:00.371Z,46.10
2017-07-14T14:04:29.671Z,46.20
2017-07-14T14:06:58.021Z,46.20
2017-07-14T14:09:27.164Z,46.20
2017-07-14T14:11:55.500Z,48.10
2017-07-14T14:14:24.134Z,46.00
2017-07-14T14:16:52.489Z,46.50
2017-07-14T14:19:20.794Z,45.30
2017-07-14T14:21:49.139Z,45.90
2017-07-14T14:24:17.469Z,46.10
2017-07-14T14:26:45.827Z,47.00
2017-07-14T14:29:14.159Z,47.30
2017-07-14T14:31:42.740Z,46.80
2017-07-14T14:34:11.032Z,47.90
2017-07-14T14:36:39.351Z,47.40
2017-07-14T14:39:09.219Z,48.00
2017-07-14T14:41:37.540Z,48.00
2017-07-14T14:44:06.289Z,48.60
2017-07-14T14:46:34.655Z,49.20
2017-07-14T14:49:02.994Z,49.30
2017-07-14T14:51:31.306Z,49.40
2017-07-14T14:53:59.884Z,51.10
2017-07-14T14:56:28.960Z,50.20
2017-07-14T14:58:57.290Z,50.10
2017-07-14T15:01:25.568Z,50.40
2017-07-14T15:03:53.922Z,50.20
2017-07-14T15:06:22.257Z,51.00
2017-07-14T15:08:50.783Z,51.50
2017-07-14T15:11:19.109Z,52.30
2017-07-14T15:13:47.608Z,52.30
2017-07-14T15:16:17.584Z,52.50
2017-07-14T15:18:47.653Z,52.10
2017-07-14T15:21:16.759Z,51.90
2017-07-14T15:23:45.157Z,51.80
2017-07-14T15:26:14.345Z,52.50
2017-07-14T15:28:43.185Z,51.40
2017-07-14T15:31:11.608Z,52.60
2017-07-14T15:33:39.971Z,51.30
2017-07-14T15:36:08.325Z,51.70
2017-07-14T15:38:36.664Z,50.60
2017-07-14T15:41:04.993Z,50.90
2017-07-14T15:43:33.355Z,50.90
2017-07-14T15:46:01.651Z,49.50
2017-07-14T15:48:29.963Z,49.90
2017-07-14T15:50:58.313Z,50.30
2017-07-14T15:53:26.620Z,50.70
2017-07-14T15:55:54.967Z,50.30
2017-07-14T15:58:23.309Z,50.80
2017-07-14T16:00:51.696Z,50.80
2017-07-14T16:03:19.991Z,49.50
2017-07-14T16:05:49.142Z,48.50
2017-07-14T16:08:17.446Z,48.40
2017-07-14T16:10:45.865Z,47.00
2017-07-14T16:13:14.207Z,47.30
2017-07-14T16:15:43.297Z,48.40
2017-07-14T16:18:11.623Z,48.40
2017-07-14T16:20:39.999Z,48.90
2017-07-14T16:23:08.323Z,47.90
2017-07-14T16:25:36.664Z,48.00
2017-07-14T16:28:04.975Z,47.30
2017-07-14T16:30:34.096Z,46.40
2017-07-14T16:33:02.465Z,46.40
2017-07-14T16:35:30.748Z,48.10
2017-07-14T16:37:59.097Z,47.60
2017-07-14T16:40:27.446Z,48.80
2017-07-14T16:42:55.779Z,48.50
2017-07-14T16:45:24.117Z,48.20
2017-07-14T16:47:53.349Z,50.40
2017-07-14T16:50:21.654Z,49.80
2017-07-14T16:52:49.947Z,47.90
2017-07-14T16:55:18.356Z,48.10
2017-07-14T16:57:46.695Z,49.60
2017-07-14T17:00:15.046Z,49.60
2017-07-14T17:02:43.360Z,51.20
2017-07-14T17:05:11.664Z,51.90
2017-07-14T17:07:40.812Z,52.80
2017-07-14T17:10:09.135Z,52.70
2017-07-14T17:12:38.241Z,52.80
2017-07-14T17:15:07.382Z,52.90
2017-07-14T17:17:35.743Z,52.90
2017-07-14T17:20:04.839Z,53.10
2017-07-14T17:22:33.965Z,53.90
2017-07-14T17:25:02.317Z,53.80
2017-07-14T17:27:30.677Z,54.20
2017-07-14T17:29:59.823Z,55.80
2017-07-14T17:32:28.173Z,55.70
2017-07-14T17:34:56.553Z,56.70
2017-07-14T17:37:24.955Z,57.80
2017-07-14T17:39:53.269Z,58.50
2017-07-14T17:42:21.653Z,60.40
2017-07-14T17:44:49.947Z,62.00
2017-07-14T17:47:19.132Z,64.70
2017-07-14T17:49:47.491Z,64.60
2017-07-14T17:52:15.845Z,65.90
2017-07-14T17:54:44.181Z,66.60
2017-07-14T17:57:12.530Z,67.90
2017-07-14T17:59:40.964Z,68.90
2017-07-14T18:02:09.287Z,69.80
2017-07-14T18:04:37.622Z,71.00
2017-07-14T18:07:05.966Z,71.50
2017-07-14T18:09:34.279Z,73.20
2017-07-14T18:12:02.951Z,75.30
2017-07-14T18:14:31.247Z,76.30
2017-07-14T18:16:59.585Z,79.10
2017-07-14T18:19:27.912Z,83.00
2017-07-14T18:21:56.281Z,87.00
2017-07-14T18:24:24.657Z,90.70
2017-07-14T18:26:53.214Z,92.00
2017-07-14T18:29:22.303Z,94.20
2017-07-14T18:31:50.747Z,93.90
2017-07-14T18:34:19.312Z,94.90
2017-07-14T18:36:47.639Z,96.00
2017-07-14T18:39:15.981Z,98.70
2017-07-14T18:41:44.329Z,99.20
2017-07-14T18:44:12.719Z,99.90
2017-07-14T18:46:41.028Z,99.90
2017-07-14T18:49:09.373Z,99.90
2017-07-14T18:51:37.728Z,99.90
2017-07-14T18:54:06.175Z,99.90
2017-07-14T18:56:34.631Z,99.90
2017-07-14T18:59:03.044Z,99.90
2017-07-14T19:01:31.361Z,99.90
2017-07-14T19:03:59.760Z,99.90
2017-07-14T19:06:28.098Z,99.90
2017-07-14T19:08:56.419Z,99.90
2017-07-14T19:11:25.578Z,99.90
2017-07-14T19:13:53.914Z,99.90
2017-07-14T19:16:22.237Z,99.90
2017-07-14T19:18:50.594Z,99.90
2017-07-14T19:21:18.901Z,99.90
2017-07-14T19:23:47.262Z,99.90
2017-07-14T19:26:15.649Z,99.90
2017-07-14T19:28:44.033Z,99.90
2017-07-14T19:31:12.335Z,99.90
2017-07-14T19:33:40.788Z,99.90
2017-07-14T19:36:09.079Z,99.90
2017-07-14T19:38:37.442Z,99.90
2017-07-14T19:41:05.779Z,99.90
2017-07-14T19:43:34.094Z,99.90
2017-07-14T19:46:02.391Z,99.90
2017-07-14T19:48:30.747Z,99.90
2017-07-14T19:50:59.039Z,99.90
2017-07-14T19:53:27.361Z,99.90
2017-07-14T19:55:56.489Z,99.90
2017-07-14T19:58:24.801Z,99.90
2017-07-14T20:00:53.112Z,99.90
2017-07-14T20:03:21.867Z,99.90
2017-07-14T20:05:50.162Z,99.90
2017-07-14T20:08:18.479Z,99.90
2017-07-14T20:10:46.800Z,99.90
2017-07-14T20:13:15.879Z,99.90
2017-07-14T20:15:44.255Z,99.90
2017-07-14T20:18:12.575Z,99.90
2017-07-14T20:20:41.643Z,99.90
2017-07-14T20:23:09.975Z,99.90
2017-07-14T20:25:38.274Z,99.90
2017-07-14T20:28:06.570Z,99.90
2017-07-14T20:30:34.907Z,99.90
2017-07-14T20:33:03.226Z,99.90
2017-07-14T20:35:32.315Z,99.90
2017-07-14T20:38:00.659Z,99.90
2017-07-14T20:40:29.181Z,99.90
2017-07-14T20:42:57.494Z,99.90
2017-07-14T20:45:26.055Z,99.90
2017-07-14T20:47:55.242Z,99.90
2017-07-14T20:50:24.347Z,99.90
2017-07-14T20:52:53.449Z,99.90
2017-07-14T20:55:21.779Z,99.90
2017-07-14T20:57:50.118Z,99.90
2017-07-14T21:00:18.485Z,99.90
2017-07-14T21:02:47.573Z,99.90
2017-07-14T21:05:15.959Z,99.90
2017-07-14T21:07:44.809Z,99.90
2017-07-14T21:10:13.323Z,99.90
2017-07-14T21:12:42.516Z,99.90
2017-07-14T21:15:12.496Z,99.90
2017-07-14T21:17:40.915Z,99.90
2017-07-14T21:20:10.003Z,99.90
2017-07-14T21:22:38.317Z,99.90
2017-07-14T21:25:06.713Z,99.90
2017-07-14T21:27:35.034Z,99.90
2017-07-14T21:30:03.387Z,99.90
2017-07-14T21:32:31.796Z,99.90
2017-07-14T21:35:00.174Z,99.90
2017-07-14T21:37:29.228Z,99.90
2017-07-14T21:39:57.644Z,99.90
2017-07-14T21:42:26.849Z,99.90
2017-07-14T21:44:55.149Z,99.90
2017-07-14T21:47:23.516Z,99.90
2017-07-14T21:49:52.568Z,99.90
2017-07-14T21:52:20.864Z,99.90
2017-07-14T21:54:49.213Z,99.90
2017-07-14T21:57:17.511Z,99.90
2017-07-14T21:59:45.886Z,99.90
2017-07-14T22:02:14.177Z,99.90
2017-07-14T22:04:42.492Z,99.90
2017-07-14T22:07:10.923Z,99.90
2017-07-14T22:09:40.026Z,99.90
2017-07-14T22:12:08.315Z,99.90
2017-07-14T22:14:36.670Z,99.90
2017-07-14T22:17:05.929Z,99.90
2017-07-14T22:19:34.307Z,99.90
2017-07-14T22:22:02.643Z,99.90
2017-07-14T22:24:30.958Z,99.90
2017-07-14T22:26:59.390Z,99.90
2017-07-14T22:29:27.772Z,99.90
2017-07-14T22:31:56.846Z,99.90
2017-07-14T22:34:25.214Z,99.90
2017-07-14T22:36:53.507Z,99.90
2017-07-14T22:39:22.071Z,99.90
2017-07-14T22:41:50.476Z,99.90
2017-07-14T22:44:18.849Z,99.90
2017-07-14T22:46:47.919Z,99.90
2017-07-14T22:49:16.240Z,99.90
2017-07-14T22:51:44.605Z,99.90
2017-07-14T22:54:13.085Z,99.90
2017-07-14T22:56:42.183Z,99.90
2017-07-14T22:59:10.561Z,99.90
2017-07-14T23:01:38.936Z,99.90
2017-07-14T23:04:07.251Z,99.90
2017-07-14T23:06:35.579Z,99.90
2017-07-14T23:09:03.955Z,99.90
2017-07-14T23:11:33.051Z,99.90
2017-07-14T23:14:01.433Z,99.90
2017-07-14T23:16:29.807Z,99.90
2017-07-14T23:18:58.904Z,99.90
2017-07-14T23:21:27.284Z,99.90
2017-07-14T23:23:55.660Z,99.90
2017-07-14T23:26:23.978Z,99.90
2017-07-14T23:28:52.298Z,99.90
2017-07-14T23:31:21.519Z,99.90
2017-07-14T23:33:49.834Z,99.90
2017-07-14T23:36:18.139Z,99.90
2017-07-14T23:38:46.551Z,99.90
2017-07-14T23:41:14.928Z,99.90
2017-07-14T23:43:43.246Z,99.90
2017-07-14T23:46:11.880Z,99.90
2017-07-14T23:48:40.215Z,99.90
2017-07-14T23:51:08.527Z,99.90
2017-07-14T23:53:37.025Z,99.90
2017-07-14T23:56:06.118Z,99.90
2017-07-14T23:58:34.595Z,99.90
